createdAt,value
2022-11-29T00:00:09.783Z,78.02
2022-11-29T00:02:45.663Z,78.39
2022-11-29T00:05:19.611Z,77.98
2022-11-29T00:07:52.605Z,77.80
2022-11-29T00:10:25.063Z,78.32
2022-11-29T00:12:57.521Z,77.86
2022-11-29T00:15:30.103Z,78.40
2022-11-29T00:18:02.676Z,77.29
2022-11-29T00:20:39.783Z,78.16
2022-11-29T00:23:12.385Z,78.21
2022-11-29T00:25:44.903Z,78.02
2022-11-29T00:28:17.362Z,78.44
2022-11-29T00:30:49.905Z,78.28
2022-11-29T00:33:22.396Z,77.76
2022-11-29T00:35:56.629Z,77.45
2022-11-29T00:38:29.318Z,77.47
2022-11-29T00:41:01.687Z,77.64
2022-11-29T00:43:34.255Z,77.83
2022-11-29T00:46:07.670Z,77.99
2022-11-29T00:48:40.319Z,77.88
2022-11-29T00:51:14.363Z,77.90
2022-11-29T00:53:47.102Z,78.48
2022-11-29T00:56:19.651Z,78.14
2022-11-29T00:58:52.243Z,77.68
2022-11-29T01:01:24.795Z,78.52
2022-11-29T01:03:57.319Z,77.98
2022-11-29T01:06:31.301Z,77.33
2022-11-29T01:09:04.600Z,78.16
2022-11-29T01:11:37.150Z,77.76
2022-11-29T01:14:12.026Z,77.86
2022-11-29T01:16:44.551Z,78.31
2022-11-29T01:19:17.033Z,77.54
2022-11-29T01:21:50.949Z,78.12
2022-11-29T01:24:23.390Z,78.28
2022-11-29T01:26:55.952Z,77.27
2022-11-29T01:29:28.495Z,78.33
2022-11-29T01:32:00.957Z,78.18
2022-11-29T01:34:33.466Z,77.63
2022-11-29T01:37:07.493Z,78.03
2022-11-29T01:39:39.996Z,77.73
2022-11-29T01:42:13.647Z,77.69
2022-11-29T01:45:14.123Z,77.98
2022-11-29T01:47:49.408Z,77.35
2022-11-29T01:50:22.223Z,78.26
2022-11-29T01:52:56.144Z,77.16
2022-11-29T01:55:29.220Z,78.04
2022-11-29T01:58:01.943Z,78.25
2022-11-29T02:00:34.486Z,78.02
2022-11-29T02:03:10.859Z,77.92
2022-11-29T02:05:46.479Z,77.79
2022-11-29T02:08:25.475Z,77.39
2022-11-29T02:11:23.919Z,78.13
2022-11-29T02:14:08.020Z,77.39
2022-11-29T02:16:56.252Z,77.06
2022-11-29T02:19:53.887Z,77.29
2022-11-29T02:22:33.894Z,77.58
2022-11-29T02:25:38.916Z,77.28
2022-11-29T02:28:45.243Z,77.36
2022-11-29T02:31:56.573Z,77.84
2022-11-29T02:34:54.981Z,77.14
2022-11-29T02:37:48.952Z,77.04
2022-11-29T02:40:50.579Z,76.91
2022-11-29T02:43:41.153Z,77.49
2022-11-29T02:46:34.103Z,77.71
2022-11-29T02:49:18.322Z,77.84
2022-11-29T02:51:59.053Z,76.93
2022-11-29T02:54:41.804Z,77.68
2022-11-29T02:57:23.267Z,76.84
2022-11-29T03:00:04.015Z,77.51
2022-11-29T03:02:42.980Z,77.75
2022-11-29T03:05:24.236Z,77.13
2022-11-29T03:08:08.884Z,77.10
2022-11-29T03:10:55.987Z,77.37
2022-11-29T03:13:41.947Z,77.53
2022-11-29T03:16:26.301Z,77.08
2022-11-29T03:19:12.577Z,77.25
2022-11-29T03:21:52.540Z,76.81
2022-11-29T03:24:37.133Z,76.95
2022-11-29T03:27:16.732Z,77.35
2022-11-29T03:29:56.725Z,77.12
2022-11-29T03:32:35.509Z,77.44
2022-11-29T03:35:13.805Z,77.49
2022-11-29T03:37:55.537Z,77.01
2022-11-29T03:40:38.808Z,76.61
2022-11-29T03:43:16.857Z,77.30
2022-11-29T03:45:54.324Z,76.60
2022-11-29T03:48:33.102Z,77.60
2022-11-29T03:51:13.882Z,77.27
2022-11-29T03:53:51.969Z,76.88
2022-11-29T03:56:30.399Z,77.15
2022-11-29T03:59:17.067Z,77.00
2022-11-29T04:02:08.940Z,77.30
2022-11-29T04:05:08.083Z,77.26
2022-11-29T04:08:28.292Z,76.70
2022-11-29T04:11:36.244Z,77.33
2022-11-29T04:14:35.067Z,77.09
2022-11-29T04:17:35.382Z,77.11
2022-11-29T04:20:40.374Z,77.49
2022-11-29T04:23:49.206Z,76.49
2022-11-29T04:27:00.602Z,77.47
2022-11-29T04:29:55.520Z,76.55
2022-11-29T04:32:56.758Z,77.02
2022-11-29T04:35:39.391Z,76.75
2022-11-29T04:38:30.115Z,76.52
2022-11-29T04:47:38.046Z,76.67
2022-11-29T04:50:26.068Z,76.60
2022-11-29T04:53:39.456Z,76.25
2022-11-29T04:56:21.666Z,76.48
2022-11-29T04:59:02.233Z,76.72
2022-11-29T05:01:46.966Z,76.46
2022-11-29T05:04:28.020Z,76.47
2022-11-29T05:07:06.421Z,76.06
2022-11-29T05:09:50.378Z,76.53
2022-11-29T05:12:29.814Z,76.29
2022-11-29T05:15:27.859Z,75.41
2022-11-29T05:18:13.012Z,75.69
2022-11-29T05:20:53.171Z,75.63
2022-11-29T05:23:39.605Z,75.18
2022-11-29T05:26:20.055Z,75.33
2022-11-29T05:29:02.031Z,75.57
2022-11-29T05:32:07.528Z,74.53
2022-11-29T05:34:59.366Z,74.99
2022-11-29T05:37:44.260Z,74.79
2022-11-29T05:40:35.512Z,75.08
2022-11-29T05:43:23.649Z,75.20
2022-11-29T05:46:03.921Z,74.98
2022-11-29T05:48:45.470Z,74.54
2022-11-29T05:51:23.091Z,74.79
2022-11-29T05:54:08.032Z,74.43
2022-11-29T05:56:47.687Z,74.07
2022-11-29T05:59:24.229Z,74.73
2022-11-29T06:02:07.250Z,74.42
2022-11-29T06:05:06.934Z,74.78
2022-11-29T06:07:45.514Z,73.97
2022-11-29T06:10:23.306Z,74.51
2022-11-29T06:13:08.490Z,74.51
2022-11-29T06:15:57.466Z,74.42
2022-11-29T06:18:48.893Z,73.61
2022-11-29T06:21:33.521Z,74.32
2022-11-29T06:24:25.998Z,74.05
2022-11-29T06:27:25.272Z,74.42
2022-11-29T06:30:03.234Z,74.51
2022-11-29T06:32:45.338Z,73.78
2022-11-29T06:35:35.715Z,73.57
2022-11-29T06:38:16.712Z,73.54
2022-11-29T06:40:50.330Z,73.65
2022-11-29T06:43:25.924Z,74.27
2022-11-29T06:46:05.986Z,74.38
2022-11-29T06:48:46.187Z,74.19
2022-11-29T06:51:29.338Z,73.94
2022-11-29T06:54:11.003Z,73.44
2022-11-29T06:56:51.895Z,73.51
2022-11-29T06:59:43.245Z,73.61
2022-11-29T07:02:33.587Z,74.00
2022-11-29T07:05:15.273Z,73.57
2022-11-29T07:07:48.804Z,73.20
2022-11-29T07:10:22.247Z,73.39
2022-11-29T07:12:55.436Z,73.45
2022-11-29T07:15:30.104Z,74.03
2022-11-29T07:18:12.563Z,73.52
2022-11-29T07:20:55.756Z,73.45
2022-11-29T07:23:35.175Z,74.06
2022-11-29T07:26:19.274Z,73.92
2022-11-29T07:29:10.710Z,74.61
2022-11-29T07:31:59.220Z,73.98
2022-11-29T07:34:40.528Z,74.87
2022-11-29T07:37:26.147Z,74.62
2022-11-29T07:40:06.700Z,73.83
2022-11-29T07:42:55.358Z,74.06
2022-11-29T07:45:30.186Z,74.09
2022-11-29T07:48:04.888Z,74.75
2022-11-29T07:50:37.571Z,74.38
2022-11-29T07:53:15.621Z,73.66
2022-11-29T07:55:49.619Z,74.67
2022-11-29T07:58:22.221Z,73.75
2022-11-29T08:00:54.922Z,74.34
2022-11-29T08:03:29.354Z,73.75
2022-11-29T08:06:02.516Z,73.63
2022-11-29T08:08:37.883Z,73.98
2022-11-29T08:11:16.044Z,73.99
2022-11-29T08:13:48.589Z,73.62
2022-11-29T08:16:21.278Z,73.60
2022-11-29T08:18:55.146Z,74.60
2022-11-29T08:21:27.766Z,74.36
2022-11-29T08:24:00.233Z,73.51
2022-11-29T08:26:32.876Z,74.13
2022-11-29T08:29:05.325Z,73.59
2022-11-29T08:31:37.809Z,73.69
2022-11-29T08:34:12.469Z,74.16
2022-11-29T08:36:45.208Z,73.88
2022-11-29T08:39:17.846Z,73.69
2022-11-29T08:41:50.484Z,73.60
2022-11-29T08:44:22.986Z,73.75
2022-11-29T08:47:14.472Z,74.28
2022-11-29T08:50:03.450Z,73.92
2022-11-29T08:52:58.843Z,73.50
2022-11-29T08:55:33.647Z,73.75
2022-11-29T08:58:08.621Z,74.26
2022-11-29T09:00:43.596Z,74.16
2022-11-29T09:03:34.466Z,73.88
2022-11-29T09:06:12.673Z,74.02
2022-11-29T09:08:45.759Z,74.13
2022-11-29T09:11:21.106Z,74.53
2022-11-29T09:13:56.512Z,74.21
2022-11-29T09:16:31.194Z,74.66
2022-11-29T09:19:04.606Z,73.73
2022-11-29T09:21:38.489Z,73.69
2022-11-29T09:24:11.568Z,73.80
2022-11-29T09:26:48.252Z,74.27
2022-11-29T09:29:20.982Z,73.56
2022-11-29T09:31:53.696Z,74.20
2022-11-29T09:34:26.208Z,73.37
2022-11-29T09:37:00.440Z,74.07
2022-11-29T09:39:33.254Z,74.44
2022-11-29T09:42:19.225Z,73.72
2022-11-29T09:45:02.036Z,73.45
2022-11-29T09:47:58.141Z,73.36
2022-11-29T09:50:34.371Z,73.75
2022-11-29T09:53:38.082Z,74.14
2022-11-29T09:56:23.718Z,73.58
2022-11-29T09:59:00.353Z,74.21
2022-11-29T10:01:37.691Z,74.51
2022-11-29T10:04:15.887Z,73.75
2022-11-29T10:06:59.212Z,73.55
2022-11-29T10:09:39.227Z,74.57
2022-11-29T10:12:17.472Z,74.37
2022-11-29T10:14:57.410Z,73.62
2022-11-29T10:17:36.552Z,73.63
2022-11-29T10:20:13.792Z,74.18
2022-11-29T10:22:53.728Z,73.47
2022-11-29T10:25:32.287Z,73.75
2022-11-29T10:28:11.505Z,73.67
2022-11-29T10:30:44.935Z,74.04
2022-11-29T10:33:21.325Z,73.42
2022-11-29T10:35:59.497Z,73.78
2022-11-29T10:38:32.257Z,73.91
2022-11-29T10:41:10.568Z,74.13
2022-11-29T10:43:43.476Z,73.48
2022-11-29T10:46:23.526Z,73.58
2022-11-29T10:48:57.941Z,74.01
2022-11-29T10:51:32.026Z,74.09
2022-11-29T10:54:18.566Z,73.32
2022-11-29T10:56:52.536Z,73.36
2022-11-29T10:59:26.656Z,73.36
2022-11-29T11:02:00.659Z,73.89
2022-11-29T11:04:35.867Z,73.10
2022-11-29T11:07:23.443Z,73.50
2022-11-29T11:09:58.276Z,73.67
2022-11-29T11:12:34.654Z,73.21
2022-11-29T11:15:16.995Z,73.95
2022-11-29T11:17:58.247Z,73.00
2022-11-29T11:20:33.082Z,73.22
2022-11-29T11:23:21.039Z,73.07
2022-11-29T11:25:59.304Z,73.36
2022-11-29T11:28:40.527Z,73.63
2022-11-29T11:31:13.900Z,73.01
2022-11-29T11:33:47.025Z,72.73
2022-11-29T11:36:23.369Z,72.66
2022-11-29T11:38:57.589Z,72.58
2022-11-29T11:41:50.566Z,73.27
2022-11-29T11:44:48.460Z,72.78
2022-11-29T11:47:24.564Z,73.44
2022-11-29T11:50:10.709Z,73.01
2022-11-29T11:52:50.434Z,72.49
2022-11-29T11:55:32.271Z,72.87
2022-11-29T11:58:16.906Z,72.80
2022-11-29T12:01:08.892Z,72.70
2022-11-29T12:03:50.052Z,73.04
2022-11-29T12:06:30.290Z,72.70
2022-11-29T12:09:16.661Z,73.44
2022-11-29T12:12:00.639Z,72.34
2022-11-29T12:14:43.138Z,72.59
2022-11-29T12:17:22.763Z,72.75
2022-11-29T12:20:13.900Z,72.97
2022-11-29T12:23:00.237Z,72.49
2022-11-29T12:25:40.358Z,73.09
2022-11-29T12:28:20.073Z,73.38
2022-11-29T12:31:03.671Z,72.62
2022-11-29T12:33:48.736Z,73.06
2022-11-29T12:36:32.175Z,73.03
2022-11-29T12:39:19.270Z,72.95
2022-11-29T12:42:00.444Z,73.03
2022-11-29T12:44:45.615Z,72.35
2022-11-29T12:47:35.567Z,72.30
2022-11-29T12:50:26.085Z,72.17
2022-11-29T12:53:13.541Z,72.19
2022-11-29T12:55:53.660Z,72.58
2022-11-29T12:58:33.705Z,72.15
2022-11-29T13:01:15.901Z,72.83
2022-11-29T13:03:57.474Z,72.35
2022-11-29T13:06:43.309Z,72.40
2022-11-29T13:09:42.525Z,72.49
2022-11-29T13:12:21.609Z,72.56
2022-11-29T13:15:02.020Z,72.53
2022-11-29T13:17:42.271Z,72.23
2022-11-29T13:20:25.633Z,72.83
2022-11-29T13:23:05.389Z,72.04
2022-11-29T13:25:43.106Z,72.63
2022-11-29T13:28:22.589Z,72.79
2022-11-29T13:31:00.893Z,72.38
2022-11-29T13:33:46.646Z,72.85
2022-11-29T13:36:30.026Z,72.53
2022-11-29T13:39:14.350Z,72.27
2022-11-29T13:41:55.050Z,72.79
2022-11-29T13:44:35.357Z,72.81
2022-11-29T13:47:11.058Z,73.06
2022-11-29T13:50:00.032Z,72.80
2022-11-29T13:52:41.295Z,72.42
2022-11-29T13:55:29.097Z,72.68
2022-11-29T13:58:22.480Z,72.70
2022-11-29T14:01:00.350Z,72.54
2022-11-29T14:03:36.485Z,72.48
2022-11-29T14:06:23.568Z,72.29
2022-11-29T14:09:19.584Z,72.55
2022-11-29T14:12:03.329Z,72.57
2022-11-29T14:14:47.750Z,72.82
2022-11-29T14:17:46.524Z,72.62
2022-11-29T14:20:44.347Z,72.99
2022-11-29T14:23:31.156Z,73.03
2022-11-29T14:26:28.823Z,72.77
2022-11-29T14:29:40.436Z,72.75
2022-11-29T14:32:22.822Z,72.60
2022-11-29T14:35:01.754Z,73.06
2022-11-29T14:37:52.411Z,73.16
2022-11-29T14:40:31.543Z,72.94
2022-11-29T14:43:17.097Z,72.83
2022-11-29T14:46:08.102Z,73.05
2022-11-29T14:48:44.677Z,73.12
2022-11-29T14:51:19.617Z,72.74
2022-11-29T14:54:04.959Z,73.31
2022-11-29T14:56:39.591Z,72.92
2022-11-29T14:59:50.449Z,73.15
2022-11-29T15:02:32.695Z,73.51
2022-11-29T15:05:19.025Z,73.05
2022-11-29T15:08:01.852Z,73.30
2022-11-29T15:10:39.476Z,73.03
2022-11-29T15:13:23.440Z,73.41
2022-11-29T15:16:27.867Z,73.30
2022-11-29T15:19:35.356Z,73.65
2022-11-29T15:22:17.271Z,73.24
2022-11-29T15:24:51.800Z,72.77
2022-11-29T15:27:24.871Z,73.03
2022-11-29T15:29:59.021Z,73.41
2022-11-29T15:32:32.885Z,73.49
2022-11-29T15:35:05.828Z,73.18
2022-11-29T15:37:47.099Z,73.56
2022-11-29T15:40:21.169Z,73.39
2022-11-29T15:43:00.271Z,73.31
2022-11-29T15:45:34.545Z,73.46
2022-11-29T15:48:18.003Z,73.18
2022-11-29T15:51:01.519Z,73.38
2022-11-29T15:53:39.538Z,73.14
2022-11-29T15:56:15.036Z,73.58
2022-11-29T15:58:48.607Z,73.54
2022-11-29T16:01:22.015Z,73.21
2022-11-29T16:03:57.330Z,73.27
2022-11-29T16:06:38.112Z,73.60
2022-11-29T16:09:15.008Z,73.35
2022-11-29T16:11:48.635Z,73.55
2022-11-29T16:14:23.864Z,73.34
2022-11-29T16:17:00.669Z,72.87
2022-11-29T16:19:35.243Z,73.24
2022-11-29T16:22:18.166Z,73.29
2022-11-29T16:25:04.588Z,73.40
2022-11-29T16:27:37.164Z,73.60
2022-11-29T16:30:21.359Z,73.65
2022-11-29T16:32:55.215Z,73.71
2022-11-29T16:35:29.624Z,73.58
2022-11-29T16:38:04.867Z,73.30
2022-11-29T16:40:39.118Z,73.48
2022-11-29T16:43:41.791Z,73.61
2022-11-29T16:46:36.063Z,73.56
2022-11-29T16:49:35.648Z,73.49
2022-11-29T16:52:24.426Z,73.41
2022-11-29T16:54:57.129Z,73.58
2022-11-29T16:57:32.284Z,73.76
2022-11-29T17:00:11.697Z,73.51
2022-11-29T17:02:44.428Z,73.31
2022-11-29T17:05:17.222Z,73.39
2022-11-29T17:07:50.657Z,73.34
2022-11-29T17:10:25.707Z,73.30
2022-11-29T17:13:01.694Z,73.25
2022-11-29T17:15:34.349Z,73.49
2022-11-29T17:18:06.835Z,73.43
2022-11-29T17:20:39.307Z,73.35
2022-11-29T17:23:11.904Z,73.64
2022-11-29T17:25:44.357Z,73.41
2022-11-29T17:28:18.199Z,73.24
2022-11-29T17:30:50.740Z,73.36
2022-11-29T17:33:24.507Z,72.94
2022-11-29T17:36:03.335Z,73.28
2022-11-29T17:38:36.059Z,73.10
2022-11-29T17:41:09.519Z,73.17
2022-11-29T17:43:43.731Z,73.19
2022-11-29T17:46:18.514Z,73.45
2022-11-29T17:48:52.495Z,73.38
2022-11-29T17:54:18.014Z,73.36
2022-11-29T17:56:50.525Z,72.79
2022-11-29T17:59:24.604Z,73.46
2022-11-29T18:01:57.102Z,73.41
2022-11-29T18:04:29.932Z,72.94
2022-11-29T18:07:02.881Z,73.27
2022-11-29T18:09:35.341Z,72.67
2022-11-29T18:12:08.126Z,73.65
2022-11-29T18:14:42.381Z,73.52
2022-11-29T18:17:14.824Z,73.61
2022-11-29T18:19:47.551Z,73.31
2022-11-29T18:22:20.258Z,73.66
2022-11-29T18:25:01.136Z,73.37
2022-11-29T18:27:42.626Z,73.69
2022-11-29T18:30:17.115Z,73.31
2022-11-29T18:32:49.717Z,73.33
2022-11-29T18:35:22.435Z,73.75
2022-11-29T18:38:14.849Z,73.52
2022-11-29T18:40:47.802Z,73.47
2022-11-29T18:43:20.476Z,73.58
2022-11-29T18:45:56.020Z,73.23
2022-11-29T18:48:30.560Z,73.22
2022-11-29T18:51:12.562Z,73.14
2022-11-29T18:53:45.631Z,73.30
2022-11-29T18:56:24.806Z,73.39
2022-11-29T18:58:59.093Z,73.46
2022-11-29T19:01:35.590Z,72.93
2022-11-29T19:04:12.596Z,73.36
2022-11-29T19:06:47.981Z,73.14
2022-11-29T19:09:22.214Z,73.03
2022-11-29T19:11:54.844Z,73.43
2022-11-29T19:14:27.488Z,73.22
2022-11-29T19:17:01.621Z,73.53
2022-11-29T19:19:34.106Z,73.18
2022-11-29T19:22:06.560Z,73.35
2022-11-29T19:24:39.208Z,73.49
2022-11-29T19:27:11.840Z,72.86
2022-11-29T19:29:47.488Z,72.86
2022-11-29T19:32:26.484Z,73.48
2022-11-29T19:34:59.001Z,73.48
2022-11-29T19:37:35.460Z,73.24
2022-11-29T19:40:08.888Z,73.41
2022-11-29T19:42:41.404Z,73.16
2022-11-29T19:45:19.765Z,73.49
2022-11-29T19:47:53.939Z,73.42
2022-11-29T19:50:26.530Z,73.25
2022-11-29T19:52:59.866Z,73.08
2022-11-29T19:55:33.924Z,73.57
2022-11-29T19:58:06.653Z,73.26
2022-11-29T20:00:39.090Z,73.33
2022-11-29T20:03:14.146Z,73.00
2022-11-29T20:05:55.046Z,73.16
2022-11-29T20:08:27.806Z,73.06
2022-11-29T20:11:06.342Z,72.94
2022-11-29T20:13:38.884Z,73.15
2022-11-29T20:16:13.555Z,73.51
2022-11-29T20:18:51.138Z,73.20
2022-11-29T20:21:27.919Z,73.44
2022-11-29T20:24:02.689Z,72.90
2022-11-29T20:26:37.263Z,73.37
2022-11-29T20:29:10.592Z,72.91
2022-11-29T20:31:49.621Z,72.89
2022-11-29T20:34:25.116Z,73.25
2022-11-29T20:37:30.593Z,73.18
2022-11-29T20:40:05.863Z,73.13
2022-11-29T20:42:57.329Z,73.33
2022-11-29T20:45:30.358Z,72.89
2022-11-29T20:48:13.201Z,73.05
2022-11-29T20:50:53.053Z,72.95
2022-11-29T20:53:34.722Z,73.14
2022-11-29T20:56:08.488Z,72.76
2022-11-29T20:58:41.251Z,72.95
2022-11-29T21:01:13.979Z,72.80
2022-11-29T21:03:46.494Z,72.69
2022-11-29T21:06:20.515Z,73.04
2022-11-29T21:08:53.663Z,72.93
2022-11-29T21:11:26.748Z,73.09
2022-11-29T21:14:03.586Z,72.76
2022-11-29T21:16:36.472Z,72.86
2022-11-29T21:19:17.204Z,72.76
2022-11-29T21:22:02.052Z,72.39
2022-11-29T21:24:46.238Z,72.61
2022-11-29T21:27:25.644Z,72.57
2022-11-29T21:29:58.629Z,72.61
2022-11-29T21:32:32.527Z,73.02
2022-11-29T21:35:05.625Z,72.47
2022-11-29T21:37:39.756Z,72.81
2022-11-29T21:40:14.035Z,73.21
2022-11-29T21:42:46.666Z,72.78
2022-11-29T21:45:19.212Z,72.50
2022-11-29T21:47:51.684Z,72.70
2022-11-29T21:50:24.062Z,72.98
2022-11-29T21:52:58.182Z,72.92
2022-11-29T21:55:32.354Z,73.23
2022-11-29T21:58:05.168Z,72.48
2022-11-29T22:00:37.790Z,73.18
2022-11-29T22:03:10.639Z,72.61
2022-11-29T22:05:43.053Z,72.87
2022-11-29T22:08:17.946Z,72.69
2022-11-29T22:11:00.504Z,73.19
2022-11-29T22:13:33.121Z,72.65
2022-11-29T22:16:07.896Z,72.56
2022-11-29T22:18:40.387Z,73.01
2022-11-29T22:21:12.791Z,73.02
2022-11-29T22:23:47.205Z,72.31
2022-11-29T22:26:19.654Z,72.84
2022-11-29T22:28:52.150Z,73.02
2022-11-29T22:31:24.749Z,73.08
2022-11-29T22:33:57.724Z,72.86
2022-11-29T22:36:30.084Z,72.23
2022-11-29T22:39:05.027Z,72.85
2022-11-29T22:41:39.592Z,72.86
2022-11-29T22:44:12.298Z,72.38
2022-11-29T22:46:44.810Z,72.25
2022-11-29T22:49:17.395Z,72.50
2022-11-29T22:51:49.951Z,72.95
2022-11-29T22:54:24.094Z,73.04
2022-11-29T22:56:56.559Z,72.89
2022-11-29T22:59:29.037Z,72.45
2022-11-29T23:02:01.656Z,72.54
2022-11-29T23:04:34.269Z,72.15
2022-11-29T23:07:06.722Z,72.79
2022-11-29T23:09:40.623Z,72.41
2022-11-29T23:12:13.008Z,72.34
2022-11-29T23:14:45.803Z,72.45
2022-11-29T23:17:19.210Z,72.29
2022-11-29T23:19:51.634Z,72.33
2022-11-29T23:22:24.056Z,71.93
2022-11-29T23:24:58.120Z,72.70
2022-11-29T23:27:30.576Z,72.23
2022-11-29T23:30:03.036Z,72.50
2022-11-29T23:32:35.873Z,72.48
2022-11-29T23:35:09.167Z,72.53
2022-11-29T23:37:41.619Z,72.55
2022-11-29T23:40:15.909Z,72.41
2022-11-29T23:42:51.296Z,72.56
2022-11-29T23:45:23.923Z,72.32
2022-11-29T23:47:56.432Z,72.77
2022-11-29T23:50:28.900Z,72.89
2022-11-29T23:53:01.301Z,72.90
2022-11-29T23:55:35.430Z,72.74
2022-11-29T23:58:08.196Z,72.20
